sensor_id;sensor_type;location;lat;lon;timestamp;P1;durP1;ratioP1;P2;durP2;ratioP2
65597;SDS011;52267;51.984;20.956;2023-07-31T00:00:15;4.50;;;2.80;;
65597;SDS011;52267;51.984;20.956;2023-07-31T00:03:02;4.10;;;2.60;;
65597;SDS011;52267;51.984;20.956;2023-07-31T00:05:29;5.20;;;2.80;;
65597;SDS011;52267;51.984;20.956;2023-07-31T00:07:56;4.60;;;2.90;;
65597;SDS011;52267;51.984;20.956;2023-07-31T00:10:23;4.40;;;2.70;;
65597;SDS011;52267;51.984;20.956;2023-07-31T00:12:50;4.80;;;3.10;;
65597;SDS011;52267;51.984;20.956;2023-07-31T00:15:17;4.10;;;2.90;;
65597;SDS011;52267;51.984;20.956;2023-07-31T00:17:44;4.40;;;2.80;;
65597;SDS011;52267;51.984;20.956;2023-07-31T00:20:11;4.80;;;2.80;;
65597;SDS011;52267;51.984;20.956;2023-07-31T00:22:38;4.20;;;2.90;;
65597;SDS011;52267;51.984;20.956;2023-07-31T00:25:05;5.00;;;3.20;;
65597;SDS011;52267;51.984;20.956;2023-07-31T00:27:32;4.40;;;3.10;;
65597;SDS011;52267;51.984;20.956;2023-07-31T00:30:00;4.60;;;3.00;;
65597;SDS011;52267;51.984;20.956;2023-07-31T00:32:27;4.30;;;2.90;;
65597;SDS011;52267;51.984;20.956;2023-07-31T00:34:54;4.90;;;3.00;;
65597;SDS011;52267;51.984;20.956;2023-07-31T00:37:21;5.70;;;3.60;;
65597;SDS011;52267;51.984;20.956;2023-07-31T00:39:48;3.90;;;2.70;;
65597;SDS011;52267;51.984;20.956;2023-07-31T00:42:15;5.00;;;2.90;;
65597;SDS011;52267;51.984;20.956;2023-07-31T00:44:42;6.40;;;3.20;;
65597;SDS011;52267;51.984;20.956;2023-07-31T00:47:09;5.80;;;3.10;;
65597;SDS011;52267;51.984;20.956;2023-07-31T00:49:36;4.40;;;2.80;;
65597;SDS011;52267;51.984;20.956;2023-07-31T00:52:03;4.80;;;2.90;;
65597;SDS011;52267;51.984;20.956;2023-07-31T00:54:31;4.90;;;3.00;;
65597;SDS011;52267;51.984;20.956;2023-07-31T00:56:58;6.40;;;3.20;;
65597;SDS011;52267;51.984;20.956;2023-07-31T00:59:26;3.70;;;2.90;;
65597;SDS011;52267;51.984;20.956;2023-07-31T01:01:54;4.80;;;3.00;;
65597;SDS011;52267;51.984;20.956;2023-07-31T01:04:21;6.10;;;3.30;;
65597;SDS011;52267;51.984;20.956;2023-07-31T01:07:00;6.20;;;3.30;;
65597;SDS011;52267;51.984;20.956;2023-07-31T01:12:04;5.40;;;3.40;;
65597;SDS011;52267;51.984;20.956;2023-07-31T01:14:33;5.70;;;3.20;;
65597;SDS011;52267;51.984;20.956;2023-07-31T01:17:00;8.00;;;3.50;;
65597;SDS011;52267;51.984;20.956;2023-07-31T01:19:28;4.50;;;3.40;;
65597;SDS011;52267;51.984;20.956;2023-07-31T01:22:16;6.00;;;3.40;;
65597;SDS011;52267;51.984;20.956;2023-07-31T01:25:12;6.10;;;4.00;;
65597;SDS011;52267;51.984;20.956;2023-07-31T01:28:04;5.00;;;3.60;;
65597;SDS011;52267;51.984;20.956;2023-07-31T01:30:37;5.20;;;3.30;;
65597;SDS011;52267;51.984;20.956;2023-07-31T01:33:10;4.60;;;3.10;;
65597;SDS011;52267;51.984;20.956;2023-07-31T01:35:37;4.60;;;3.40;;
65597;SDS011;52267;51.984;20.956;2023-07-31T01:38:05;4.60;;;3.40;;
65597;SDS011;52267;51.984;20.956;2023-07-31T01:40:32;5.60;;;3.70;;
65597;SDS011;52267;51.984;20.956;2023-07-31T01:42:59;4.30;;;3.20;;
65597;SDS011;52267;51.984;20.956;2023-07-31T01:45:26;4.50;;;3.20;;
65597;SDS011;52267;51.984;20.956;2023-07-31T01:47:53;5.00;;;3.90;;
65597;SDS011;52267;51.984;20.956;2023-07-31T01:50:20;4.60;;;3.10;;
65597;SDS011;52267;51.984;20.956;2023-07-31T01:52:47;6.20;;;3.20;;
65597;SDS011;52267;51.984;20.956;2023-07-31T01:55:14;4.90;;;3.50;;
65597;SDS011;52267;51.984;20.956;2023-07-31T01:57:41;5.20;;;3.90;;
65597;SDS011;52267;51.984;20.956;2023-07-31T02:00:08;4.60;;;3.10;;
65597;SDS011;52267;51.984;20.956;2023-07-31T02:02:36;6.00;;;3.70;;
65597;SDS011;52267;51.984;20.956;2023-07-31T02:05:03;9.00;;;3.80;;
65597;SDS011;52267;51.984;20.956;2023-07-31T02:07:31;5.40;;;3.60;;
65597;SDS011;52267;51.984;20.956;2023-07-31T02:09:58;7.60;;;3.50;;
65597;SDS011;52267;51.984;20.956;2023-07-31T02:12:25;5.90;;;3.20;;
65597;SDS011;52267;51.984;20.956;2023-07-31T02:14:52;5.60;;;3.70;;
65597;SDS011;52267;51.984;20.956;2023-07-31T02:17:19;4.90;;;3.30;;
65597;SDS011;52267;51.984;20.956;2023-07-31T02:19:46;5.00;;;3.30;;
65597;SDS011;52267;51.984;20.956;2023-07-31T02:22:13;5.00;;;3.80;;
65597;SDS011;52267;51.984;20.956;2023-07-31T02:24:40;5.90;;;3.20;;
65597;SDS011;52267;51.984;20.956;2023-07-31T02:27:07;5.60;;;3.40;;
65597;SDS011;52267;51.984;20.956;2023-07-31T02:29:34;5.20;;;3.40;;
65597;SDS011;52267;51.984;20.956;2023-07-31T02:32:01;6.40;;;3.80;;
65597;SDS011;52267;51.984;20.956;2023-07-31T02:34:29;5.70;;;3.60;;
65597;SDS011;52267;51.984;20.956;2023-07-31T02:36:56;5.00;;;3.40;;
65597;SDS011;52267;51.984;20.956;2023-07-31T02:39:23;4.80;;;3.80;;
65597;SDS011;52267;51.984;20.956;2023-07-31T02:41:50;5.20;;;3.50;;
65597;SDS011;52267;51.984;20.956;2023-07-31T02:44:17;5.10;;;3.30;;
65597;SDS011;52267;51.984;20.956;2023-07-31T02:46:47;4.20;;;3.00;;
65597;SDS011;52267;51.984;20.956;2023-07-31T02:49:14;5.00;;;3.30;;
65597;SDS011;52267;51.984;20.956;2023-07-31T02:51:41;5.50;;;3.70;;
65597;SDS011;52267;51.984;20.956;2023-07-31T02:54:08;6.50;;;3.60;;
65597;SDS011;52267;51.984;20.956;2023-07-31T02:56:35;6.00;;;3.70;;
65597;SDS011;52267;51.984;20.956;2023-07-31T02:59:02;6.00;;;3.60;;
65597;SDS011;52267;51.984;20.956;2023-07-31T03:01:29;8.70;;;3.80;;
65597;SDS011;52267;51.984;20.956;2023-07-31T03:03:56;5.40;;;3.70;;
65597;SDS011;52267;51.984;20.956;2023-07-31T03:06:23;5.10;;;3.80;;
65597;SDS011;52267;51.984;20.956;2023-07-31T03:08:50;6.20;;;3.50;;
65597;SDS011;52267;51.984;20.956;2023-07-31T03:11:17;5.10;;;3.40;;
65597;SDS011;52267;51.984;20.956;2023-07-31T03:13:47;5.30;;;3.30;;
65597;SDS011;52267;51.984;20.956;2023-07-31T03:16:14;5.50;;;3.10;;
65597;SDS011;52267;51.984;20.956;2023-07-31T03:18:42;4.90;;;3.30;;
65597;SDS011;52267;51.984;20.956;2023-07-31T03:21:09;6.20;;;3.30;;
65597;SDS011;52267;51.984;20.956;2023-07-31T03:23:35;6.20;;;3.50;;
65597;SDS011;52267;51.984;20.956;2023-07-31T03:26:05;5.50;;;3.20;;
65597;SDS011;52267;51.984;20.956;2023-07-31T03:28:32;4.60;;;3.10;;
65597;SDS011;52267;51.984;20.956;2023-07-31T03:30:59;5.10;;;3.30;;
65597;SDS011;52267;51.984;20.956;2023-07-31T03:33:27;6.60;;;2.90;;
65597;SDS011;52267;51.984;20.956;2023-07-31T03:35:54;5.30;;;3.10;;
65597;SDS011;52267;51.984;20.956;2023-07-31T03:38:21;6.90;;;3.40;;
65597;SDS011;52267;51.984;20.956;2023-07-31T03:40:48;5.30;;;3.20;;
65597;SDS011;52267;51.984;20.956;2023-07-31T03:43:15;3.80;;;2.50;;
65597;SDS011;52267;51.984;20.956;2023-07-31T03:45:42;4.60;;;3.20;;
65597;SDS011;52267;51.984;20.956;2023-07-31T03:48:09;4.90;;;3.20;;
65597;SDS011;52267;51.984;20.956;2023-07-31T03:50:36;4.80;;;2.60;;
65597;SDS011;52267;51.984;20.956;2023-07-31T03:53:03;7.20;;;3.10;;
65597;SDS011;52267;51.984;20.956;2023-07-31T03:55:30;5.90;;;2.90;;
65597;SDS011;52267;51.984;20.956;2023-07-31T03:57:58;5.60;;;3.10;;
65597;SDS011;52267;51.984;20.956;2023-07-31T04:00:27;7.50;;;3.10;;
65597;SDS011;52267;51.984;20.956;2023-07-31T04:02:54;4.60;;;2.90;;
65597;SDS011;52267;51.984;20.956;2023-07-31T04:05:21;4.50;;;3.20;;
65597;SDS011;52267;51.984;20.956;2023-07-31T04:07:48;5.20;;;2.80;;
65597;SDS011;52267;51.984;20.956;2023-07-31T04:10:15;5.50;;;3.10;;
65597;SDS011;52267;51.984;20.956;2023-07-31T04:12:42;5.40;;;3.00;;
65597;SDS011;52267;51.984;20.956;2023-07-31T04:15:09;4.50;;;2.30;;
65597;SDS011;52267;51.984;20.956;2023-07-31T04:17:36;6.40;;;3.00;;
65597;SDS011;52267;51.984;20.956;2023-07-31T04:20:04;5.80;;;2.80;;
65597;SDS011;52267;51.984;20.956;2023-07-31T04:22:32;6.40;;;2.80;;
65597;SDS011;52267;51.984;20.956;2023-07-31T04:24:59;4.90;;;2.80;;
65597;SDS011;52267;51.984;20.956;2023-07-31T04:27:26;6.80;;;3.10;;
65597;SDS011;52267;51.984;20.956;2023-07-31T04:29:53;5.10;;;2.90;;
65597;SDS011;52267;51.984;20.956;2023-07-31T04:32:20;5.00;;;2.80;;
65597;SDS011;52267;51.984;20.956;2023-07-31T04:34:47;5.10;;;3.40;;
65597;SDS011;52267;51.984;20.956;2023-07-31T04:37:14;5.20;;;3.00;;
65597;SDS011;52267;51.984;20.956;2023-07-31T04:39:41;4.70;;;3.10;;
65597;SDS011;52267;51.984;20.956;2023-07-31T04:42:08;5.10;;;3.30;;
65597;SDS011;52267;51.984;20.956;2023-07-31T04:44:35;5.60;;;3.20;;
65597;SDS011;52267;51.984;20.956;2023-07-31T04:47:03;5.90;;;3.00;;
65597;SDS011;52267;51.984;20.956;2023-07-31T04:49:31;6.10;;;3.20;;
65597;SDS011;52267;51.984;20.956;2023-07-31T04:51:58;6.20;;;2.70;;
65597;SDS011;52267;51.984;20.956;2023-07-31T04:54:25;5.80;;;3.30;;
65597;SDS011;52267;51.984;20.956;2023-07-31T04:56:52;5.10;;;2.90;;
65597;SDS011;52267;51.984;20.956;2023-07-31T04:59:20;6.10;;;3.30;;
65597;SDS011;52267;51.984;20.956;2023-07-31T05:01:47;5.80;;;3.20;;
65597;SDS011;52267;51.984;20.956;2023-07-31T05:04:14;4.80;;;2.90;;
65597;SDS011;52267;51.984;20.956;2023-07-31T05:06:41;4.40;;;3.40;;
65597;SDS011;52267;51.984;20.956;2023-07-31T05:09:09;5.60;;;3.20;;
65597;SDS011;52267;51.984;20.956;2023-07-31T05:11:36;6.40;;;3.30;;
65597;SDS011;52267;51.984;20.956;2023-07-31T05:14:03;6.00;;;3.30;;
65597;SDS011;52267;51.984;20.956;2023-07-31T05:16:30;6.60;;;2.90;;
65597;SDS011;52267;51.984;20.956;2023-07-31T05:18:57;5.60;;;3.30;;
65597;SDS011;52267;51.984;20.956;2023-07-31T05:21:24;4.40;;;2.60;;
65597;SDS011;52267;51.984;20.956;2023-07-31T05:23:51;5.30;;;2.90;;
65597;SDS011;52267;51.984;20.956;2023-07-31T05:26:19;6.70;;;3.30;;
65597;SDS011;52267;51.984;20.956;2023-07-31T05:28:46;4.90;;;3.00;;
65597;SDS011;52267;51.984;20.956;2023-07-31T05:31:13;4.80;;;2.90;;
65597;SDS011;52267;51.984;20.956;2023-07-31T05:33:40;6.00;;;3.00;;
65597;SDS011;52267;51.984;20.956;2023-07-31T05:36:07;4.90;;;2.80;;
65597;SDS011;52267;51.984;20.956;2023-07-31T05:38:35;4.90;;;3.20;;
65597;SDS011;52267;51.984;20.956;2023-07-31T05:41:02;5.60;;;2.80;;
65597;SDS011;52267;51.984;20.956;2023-07-31T05:43:29;5.00;;;3.00;;
65597;SDS011;52267;51.984;20.956;2023-07-31T05:45:56;5.40;;;2.90;;
65597;SDS011;52267;51.984;20.956;2023-07-31T05:48:23;5.40;;;3.10;;
65597;SDS011;52267;51.984;20.956;2023-07-31T05:50:50;6.70;;;2.70;;
65597;SDS011;52267;51.984;20.956;2023-07-31T05:53:17;7.10;;;2.80;;
65597;SDS011;52267;51.984;20.956;2023-07-31T05:55:44;5.40;;;2.60;;
65597;SDS011;52267;51.984;20.956;2023-07-31T05:58:11;5.70;;;3.20;;
65597;SDS011;52267;51.984;20.956;2023-07-31T06:00:38;5.50;;;2.60;;
65597;SDS011;52267;51.984;20.956;2023-07-31T06:03:05;4.50;;;3.10;;
65597;SDS011;52267;51.984;20.956;2023-07-31T06:05:32;5.30;;;2.40;;
65597;SDS011;52267;51.984;20.956;2023-07-31T06:07:59;7.20;;;2.90;;
65597;SDS011;52267;51.984;20.956;2023-07-31T06:10:26;6.60;;;3.10;;
65597;SDS011;52267;51.984;20.956;2023-07-31T06:12:55;5.60;;;3.00;;
65597;SDS011;52267;51.984;20.956;2023-07-31T06:15:22;4.10;;;2.40;;
65597;SDS011;52267;51.984;20.956;2023-07-31T06:17:49;5.00;;;2.70;;
65597;SDS011;52267;51.984;20.956;2023-07-31T06:20:16;6.50;;;3.10;;
65597;SDS011;52267;51.984;20.956;2023-07-31T06:22:43;6.00;;;3.00;;
65597;SDS011;52267;51.984;20.956;2023-07-31T06:25:10;6.50;;;3.10;;
65597;SDS011;52267;51.984;20.956;2023-07-31T06:27:38;5.00;;;3.00;;
65597;SDS011;52267;51.984;20.956;2023-07-31T06:30:05;6.30;;;3.00;;
65597;SDS011;52267;51.984;20.956;2023-07-31T06:32:33;4.30;;;2.90;;
65597;SDS011;52267;51.984;20.956;2023-07-31T06:35:00;4.30;;;3.10;;
65597;SDS011;52267;51.984;20.956;2023-07-31T06:37:27;4.60;;;2.90;;
65597;SDS011;52267;51.984;20.956;2023-07-31T06:39:54;3.90;;;2.90;;
65597;SDS011;52267;51.984;20.956;2023-07-31T06:42:21;5.30;;;2.90;;
65597;SDS011;52267;51.984;20.956;2023-07-31T06:44:49;6.20;;;3.20;;
65597;SDS011;52267;51.984;20.956;2023-07-31T06:47:16;6.20;;;3.00;;
65597;SDS011;52267;51.984;20.956;2023-07-31T06:49:43;6.70;;;2.80;;
65597;SDS011;52267;51.984;20.956;2023-07-31T06:52:10;5.10;;;2.90;;
65597;SDS011;52267;51.984;20.956;2023-07-31T06:54:37;4.60;;;2.70;;
65597;SDS011;52267;51.984;20.956;2023-07-31T06:57:04;4.50;;;3.20;;
65597;SDS011;52267;51.984;20.956;2023-07-31T06:59:32;4.50;;;3.00;;
65597;SDS011;52267;51.984;20.956;2023-07-31T07:01:59;4.50;;;2.80;;
65597;SDS011;52267;51.984;20.956;2023-07-31T07:04:26;5.60;;;2.80;;
65597;SDS011;52267;51.984;20.956;2023-07-31T07:06:53;5.40;;;3.40;;
65597;SDS011;52267;51.984;20.956;2023-07-31T07:09:20;8.90;;;3.20;;
65597;SDS011;52267;51.984;20.956;2023-07-31T07:11:47;7.90;;;3.70;;
65597;SDS011;52267;51.984;20.956;2023-07-31T07:14:14;4.50;;;3.20;;
65597;SDS011;52267;51.984;20.956;2023-07-31T07:16:42;5.60;;;3.60;;
65597;SDS011;52267;51.984;20.956;2023-07-31T07:19:09;4.80;;;3.40;;
65597;SDS011;52267;51.984;20.956;2023-07-31T07:21:36;5.60;;;3.30;;
65597;SDS011;52267;51.984;20.956;2023-07-31T07:24:03;5.50;;;3.50;;
65597;SDS011;52267;51.984;20.956;2023-07-31T07:26:30;4.80;;;3.00;;
65597;SDS011;52267;51.984;20.956;2023-07-31T07:28:58;6.40;;;3.20;;
65597;SDS011;52267;51.984;20.956;2023-07-31T07:31:25;5.40;;;3.00;;
65597;SDS011;52267;51.984;20.956;2023-07-31T07:33:52;7.10;;;3.50;;
65597;SDS011;52267;51.984;20.956;2023-07-31T07:36:19;5.50;;;2.90;;
65597;SDS011;52267;51.984;20.956;2023-07-31T07:38:46;6.50;;;3.40;;
65597;SDS011;52267;51.984;20.956;2023-07-31T07:41:13;5.60;;;3.00;;
65597;SDS011;52267;51.984;20.956;2023-07-31T07:43:40;6.30;;;3.30;;
65597;SDS011;52267;51.984;20.956;2023-07-31T07:46:07;5.00;;;3.00;;
65597;SDS011;52267;51.984;20.956;2023-07-31T07:48:34;7.30;;;3.40;;
65597;SDS011;52267;51.984;20.956;2023-07-31T07:51:02;5.30;;;2.70;;
65597;SDS011;52267;51.984;20.956;2023-07-31T07:53:29;4.10;;;3.20;;
65597;SDS011;52267;51.984;20.956;2023-07-31T07:55:56;7.10;;;2.50;;
65597;SDS011;52267;51.984;20.956;2023-07-31T07:58:24;7.10;;;3.30;;
65597;SDS011;52267;51.984;20.956;2023-07-31T08:00:51;5.40;;;2.90;;
65597;SDS011;52267;51.984;20.956;2023-07-31T08:03:19;6.70;;;2.80;;
65597;SDS011;52267;51.984;20.956;2023-07-31T08:05:46;7.00;;;3.20;;
65597;SDS011;52267;51.984;20.956;2023-07-31T08:08:16;5.60;;;2.80;;
65597;SDS011;52267;51.984;20.956;2023-07-31T08:10:43;4.80;;;3.10;;
65597;SDS011;52267;51.984;20.956;2023-07-31T08:13:13;5.00;;;3.10;;
65597;SDS011;52267;51.984;20.956;2023-07-31T08:15:41;7.00;;;2.90;;
65597;SDS011;52267;51.984;20.956;2023-07-31T08:20:39;5.10;;;3.20;;
65597;SDS011;52267;51.984;20.956;2023-07-31T08:23:06;6.20;;;2.80;;
65597;SDS011;52267;51.984;20.956;2023-07-31T08:25:34;4.60;;;2.70;;
65597;SDS011;52267;51.984;20.956;2023-07-31T08:28:03;7.30;;;2.90;;
65597;SDS011;52267;51.984;20.956;2023-07-31T08:30:30;6.40;;;2.70;;
65597;SDS011;52267;51.984;20.956;2023-07-31T08:32:58;6.00;;;3.00;;
65597;SDS011;52267;51.984;20.956;2023-07-31T08:35:25;4.90;;;2.50;;
65597;SDS011;52267;51.984;20.956;2023-07-31T08:37:54;5.80;;;3.00;;
65597;SDS011;52267;51.984;20.956;2023-07-31T08:40:21;5.20;;;3.00;;
65597;SDS011;52267;51.984;20.956;2023-07-31T08:42:50;6.80;;;2.40;;
65597;SDS011;52267;51.984;20.956;2023-07-31T08:45:19;5.20;;;3.00;;
65597;SDS011;52267;51.984;20.956;2023-07-31T08:47:48;4.10;;;2.30;;
65597;SDS011;52267;51.984;20.956;2023-07-31T08:50:19;4.80;;;2.30;;
65597;SDS011;52267;51.984;20.956;2023-07-31T08:52:49;6.50;;;2.40;;
65597;SDS011;52267;51.984;20.956;2023-07-31T08:55:18;4.40;;;2.50;;
65597;SDS011;52267;51.984;20.956;2023-07-31T08:57:53;5.10;;;2.40;;
65597;SDS011;52267;51.984;20.956;2023-07-31T09:00:23;3.90;;;2.20;;
65597;SDS011;52267;51.984;20.956;2023-07-31T09:02:57;5.00;;;2.50;;
65597;SDS011;52267;51.984;20.956;2023-07-31T09:05:30;4.80;;;2.10;;
65597;SDS011;52267;51.984;20.956;2023-07-31T09:07:58;6.20;;;2.50;;
65597;SDS011;52267;51.984;20.956;2023-07-31T09:10:27;4.70;;;2.30;;
65597;SDS011;52267;51.984;20.956;2023-07-31T09:12:54;4.60;;;2.10;;
65597;SDS011;52267;51.984;20.956;2023-07-31T09:15:23;4.60;;;2.30;;
65597;SDS011;52267;51.984;20.956;2023-07-31T09:17:59;11.70;;;2.90;;
65597;SDS011;52267;51.984;20.956;2023-07-31T09:20:29;5.00;;;2.70;;
65597;SDS011;52267;51.984;20.956;2023-07-31T09:23:08;3.90;;;2.10;;
65597;SDS011;52267;51.984;20.956;2023-07-31T09:25:38;4.50;;;2.10;;
65597;SDS011;52267;51.984;20.956;2023-07-31T09:28:08;6.00;;;2.00;;
65597;SDS011;52267;51.984;20.956;2023-07-31T09:30:50;4.30;;;2.10;;
65597;SDS011;52267;51.984;20.956;2023-07-31T09:33:19;3.70;;;2.00;;
65597;SDS011;52267;51.984;20.956;2023-07-31T09:35:47;4.70;;;2.60;;
65597;SDS011;52267;51.984;20.956;2023-07-31T09:38:17;4.40;;;2.40;;
65597;SDS011;52267;51.984;20.956;2023-07-31T09:40:47;4.60;;;2.30;;
65597;SDS011;52267;51.984;20.956;2023-07-31T09:43:19;4.50;;;2.10;;
65597;SDS011;52267;51.984;20.956;2023-07-31T09:45:48;4.60;;;2.20;;
65597;SDS011;52267;51.984;20.956;2023-07-31T09:48:19;4.70;;;2.60;;
65597;SDS011;52267;51.984;20.956;2023-07-31T09:50:48;5.00;;;2.10;;
65597;SDS011;52267;51.984;20.956;2023-07-31T09:53:16;3.70;;;2.40;;
65597;SDS011;52267;51.984;20.956;2023-07-31T09:55:43;4.60;;;3.10;;
65597;SDS011;52267;51.984;20.956;2023-07-31T09:58:12;5.40;;;2.90;;
65597;SDS011;52267;51.984;20.956;2023-07-31T10:00:40;6.10;;;2.50;;
65597;SDS011;52267;51.984;20.956;2023-07-31T10:03:09;4.90;;;2.30;;
65597;SDS011;52267;51.984;20.956;2023-07-31T10:08:09;5.70;;;2.30;;
65597;SDS011;52267;51.984;20.956;2023-07-31T10:10:37;5.00;;;2.50;;
65597;SDS011;52267;51.984;20.956;2023-07-31T10:13:09;4.10;;;2.30;;
65597;SDS011;52267;51.984;20.956;2023-07-31T10:15:36;8.10;;;2.50;;
65597;SDS011;52267;51.984;20.956;2023-07-31T10:18:06;5.00;;;2.30;;
65597;SDS011;52267;51.984;20.956;2023-07-31T10:20:34;4.90;;;2.40;;
65597;SDS011;52267;51.984;20.956;2023-07-31T10:23:02;4.90;;;2.50;;
65597;SDS011;52267;51.984;20.956;2023-07-31T10:25:31;5.00;;;2.60;;
65597;SDS011;52267;51.984;20.956;2023-07-31T10:27:59;4.70;;;2.30;;
65597;SDS011;52267;51.984;20.956;2023-07-31T10:30:29;3.90;;;2.60;;
65597;SDS011;52267;51.984;20.956;2023-07-31T10:35:25;4.50;;;2.30;;
65597;SDS011;52267;51.984;20.956;2023-07-31T10:37:52;4.40;;;2.60;;
65597;SDS011;52267;51.984;20.956;2023-07-31T10:40:25;4.20;;;2.00;;
65597;SDS011;52267;51.984;20.956;2023-07-31T10:42:56;3.70;;;1.70;;
65597;SDS011;52267;51.984;20.956;2023-07-31T10:48:06;5.60;;;2.10;;
65597;SDS011;52267;51.984;20.956;2023-07-31T10:50:47;4.40;;;2.00;;
65597;SDS011;52267;51.984;20.956;2023-07-31T10:53:24;6.20;;;2.20;;
65597;SDS011;52267;51.984;20.956;2023-07-31T10:55:52;4.90;;;1.90;;
65597;SDS011;52267;51.984;20.956;2023-07-31T10:58:21;3.70;;;2.00;;
65597;SDS011;52267;51.984;20.956;2023-07-31T11:00:48;3.80;;;2.20;;
65597;SDS011;52267;51.984;20.956;2023-07-31T11:03:17;4.00;;;1.90;;
65597;SDS011;52267;51.984;20.956;2023-07-31T11:06:01;3.80;;;1.70;;
65597;SDS011;52267;51.984;20.956;2023-07-31T11:08:38;3.20;;;1.80;;
65597;SDS011;52267;51.984;20.956;2023-07-31T11:11:17;4.40;;;1.70;;
65597;SDS011;52267;51.984;20.956;2023-07-31T11:13:50;6.20;;;2.60;;
65597;SDS011;52267;51.984;20.956;2023-07-31T11:16:24;3.90;;;2.00;;
65597;SDS011;52267;51.984;20.956;2023-07-31T11:18:54;3.90;;;2.30;;
65597;SDS011;52267;51.984;20.956;2023-07-31T11:21:23;3.40;;;1.80;;
65597;SDS011;52267;51.984;20.956;2023-07-31T11:23:53;4.90;;;1.90;;
65597;SDS011;52267;51.984;20.956;2023-07-31T11:26:24;3.00;;;1.60;;
65597;SDS011;52267;51.984;20.956;2023-07-31T11:28:51;4.00;;;1.70;;
65597;SDS011;52267;51.984;20.956;2023-07-31T11:31:18;3.60;;;1.90;;
65597;SDS011;52267;51.984;20.956;2023-07-31T11:33:46;4.40;;;1.80;;
65597;SDS011;52267;51.984;20.956;2023-07-31T11:36:18;4.50;;;1.70;;
65597;SDS011;52267;51.984;20.956;2023-07-31T11:38:46;4.20;;;2.00;;
65597;SDS011;52267;51.984;20.956;2023-07-31T11:41:15;4.60;;;1.80;;
65597;SDS011;52267;51.984;20.956;2023-07-31T11:43:43;3.50;;;2.10;;
65597;SDS011;52267;51.984;20.956;2023-07-31T11:46:10;3.20;;;1.60;;
65597;SDS011;52267;51.984;20.956;2023-07-31T11:48:37;4.30;;;1.80;;
65597;SDS011;52267;51.984;20.956;2023-07-31T11:51:07;4.90;;;1.90;;
65597;SDS011;52267;51.984;20.956;2023-07-31T11:53:47;3.70;;;1.70;;
65597;SDS011;52267;51.984;20.956;2023-07-31T11:56:18;3.90;;;1.70;;
65597;SDS011;52267;51.984;20.956;2023-07-31T11:58:50;3.70;;;1.70;;
65597;SDS011;52267;51.984;20.956;2023-07-31T12:01:21;4.90;;;1.80;;
65597;SDS011;52267;51.984;20.956;2023-07-31T12:03:50;5.50;;;2.20;;
65597;SDS011;52267;51.984;20.956;2023-07-31T12:06:17;3.60;;;1.50;;
65597;SDS011;52267;51.984;20.956;2023-07-31T12:08:47;4.60;;;1.70;;
65597;SDS011;52267;51.984;20.956;2023-07-31T12:11:15;7.40;;;1.90;;
65597;SDS011;52267;51.984;20.956;2023-07-31T12:13:44;2.90;;;1.70;;
65597;SDS011;52267;51.984;20.956;2023-07-31T12:16:11;4.30;;;1.60;;
65597;SDS011;52267;51.984;20.956;2023-07-31T12:18:39;5.40;;;1.90;;
65597;SDS011;52267;51.984;20.956;2023-07-31T12:21:07;5.30;;;1.80;;
65597;SDS011;52267;51.984;20.956;2023-07-31T12:23:36;5.40;;;1.90;;
65597;SDS011;52267;51.984;20.956;2023-07-31T12:26:09;6.10;;;2.30;;
65597;SDS011;52267;51.984;20.956;2023-07-31T12:28:47;4.70;;;1.90;;
65597;SDS011;52267;51.984;20.956;2023-07-31T12:31:20;6.10;;;1.80;;
65597;SDS011;52267;51.984;20.956;2023-07-31T12:33:51;3.70;;;1.70;;
65597;SDS011;52267;51.984;20.956;2023-07-31T12:36:23;4.50;;;2.50;;
65597;SDS011;52267;51.984;20.956;2023-07-31T12:38:51;4.20;;;1.40;;
65597;SDS011;52267;51.984;20.956;2023-07-31T12:41:19;6.70;;;1.90;;
65597;SDS011;52267;51.984;20.956;2023-07-31T12:43:46;4.10;;;1.90;;
65597;SDS011;52267;51.984;20.956;2023-07-31T12:46:13;4.20;;;1.70;;
65597;SDS011;52267;51.984;20.956;2023-07-31T12:48:41;4.90;;;1.70;;
65597;SDS011;52267;51.984;20.956;2023-07-31T12:51:08;5.30;;;1.70;;
65597;SDS011;52267;51.984;20.956;2023-07-31T12:53:35;5.20;;;1.90;;
65597;SDS011;52267;51.984;20.956;2023-07-31T12:56:03;5.40;;;1.60;;
65597;SDS011;52267;51.984;20.956;2023-07-31T12:58:30;4.30;;;2.30;;
65597;SDS011;52267;51.984;20.956;2023-07-31T13:00:57;5.20;;;2.40;;
65597;SDS011;52267;51.984;20.956;2023-07-31T13:03:25;5.60;;;2.00;;
65597;SDS011;52267;51.984;20.956;2023-07-31T13:05:52;3.80;;;1.70;;
65597;SDS011;52267;51.984;20.956;2023-07-31T13:08:19;4.70;;;1.90;;
65597;SDS011;52267;51.984;20.956;2023-07-31T13:10:46;5.30;;;1.80;;
65597;SDS011;52267;51.984;20.956;2023-07-31T13:13:13;4.60;;;2.00;;
65597;SDS011;52267;51.984;20.956;2023-07-31T13:15:41;7.00;;;1.60;;
65597;SDS011;52267;51.984;20.956;2023-07-31T13:18:08;3.80;;;1.80;;
65597;SDS011;52267;51.984;20.956;2023-07-31T13:20:35;6.20;;;1.60;;
65597;SDS011;52267;51.984;20.956;2023-07-31T13:23:02;5.00;;;1.70;;
65597;SDS011;52267;51.984;20.956;2023-07-31T13:25:29;6.20;;;1.60;;
65597;SDS011;52267;51.984;20.956;2023-07-31T13:27:56;4.30;;;1.70;;
65597;SDS011;52267;51.984;20.956;2023-07-31T13:30:23;4.30;;;1.80;;
65597;SDS011;52267;51.984;20.956;2023-07-31T13:32:51;4.40;;;1.80;;
65597;SDS011;52267;51.984;20.956;2023-07-31T13:35:18;4.90;;;1.60;;
65597;SDS011;52267;51.984;20.956;2023-07-31T13:37:45;5.20;;;1.60;;
65597;SDS011;52267;51.984;20.956;2023-07-31T13:40:12;3.30;;;1.50;;
65597;SDS011;52267;51.984;20.956;2023-07-31T13:42:39;3.20;;;1.50;;
65597;SDS011;52267;51.984;20.956;2023-07-31T13:45:09;3.90;;;1.50;;
65597;SDS011;52267;51.984;20.956;2023-07-31T13:47:37;4.40;;;1.80;;
65597;SDS011;52267;51.984;20.956;2023-07-31T13:50:04;4.90;;;1.70;;
65597;SDS011;52267;51.984;20.956;2023-07-31T13:52:32;4.70;;;1.70;;
65597;SDS011;52267;51.984;20.956;2023-07-31T13:54:59;4.10;;;1.60;;
65597;SDS011;52267;51.984;20.956;2023-07-31T13:57:26;3.80;;;1.50;;
65597;SDS011;52267;51.984;20.956;2023-07-31T13:59:53;3.00;;;1.40;;
65597;SDS011;52267;51.984;20.956;2023-07-31T14:02:20;3.10;;;1.40;;
65597;SDS011;52267;51.984;20.956;2023-07-31T14:04:47;3.00;;;1.40;;
65597;SDS011;52267;51.984;20.956;2023-07-31T14:07:14;5.10;;;1.80;;
65597;SDS011;52267;51.984;20.956;2023-07-31T14:09:41;4.70;;;1.60;;
65597;SDS011;52267;51.984;20.956;2023-07-31T14:12:08;4.70;;;1.80;;
65597;SDS011;52267;51.984;20.956;2023-07-31T14:14:35;3.90;;;1.70;;
65597;SDS011;52267;51.984;20.956;2023-07-31T14:17:05;3.60;;;1.90;;
65597;SDS011;52267;51.984;20.956;2023-07-31T14:19:32;5.20;;;2.30;;
65597;SDS011;52267;51.984;20.956;2023-07-31T14:21:59;4.80;;;1.60;;
65597;SDS011;52267;51.984;20.956;2023-07-31T14:24:26;4.00;;;1.80;;
65597;SDS011;52267;51.984;20.956;2023-07-31T14:26:53;4.00;;;1.70;;
65597;SDS011;52267;51.984;20.956;2023-07-31T14:29:20;5.40;;;1.70;;
65597;SDS011;52267;51.984;20.956;2023-07-31T14:31:47;4.60;;;1.80;;
65597;SDS011;52267;51.984;20.956;2023-07-31T14:34:15;3.10;;;1.70;;
65597;SDS011;52267;51.984;20.956;2023-07-31T14:36:43;3.30;;;1.70;;
65597;SDS011;52267;51.984;20.956;2023-07-31T14:39:11;3.60;;;1.80;;
65597;SDS011;52267;51.984;20.956;2023-07-31T14:41:38;5.30;;;1.90;;
65597;SDS011;52267;51.984;20.956;2023-07-31T14:44:05;7.80;;;2.40;;
65597;SDS011;52267;51.984;20.956;2023-07-31T14:46:32;4.10;;;2.00;;
65597;SDS011;52267;51.984;20.956;2023-07-31T14:48:59;5.30;;;2.30;;
65597;SDS011;52267;51.984;20.956;2023-07-31T14:51:26;4.20;;;1.80;;